sensor_id;sensor_type;location;lat;lon;timestamp;temperature;humidity
27004;DHT22;14546;47.590;19.022;2023-03-23T00:01:00;7.50;74.80
27004;DHT22;14546;47.590;19.022;2023-03-23T00:03:27;7.50;74.90
27004;DHT22;14546;47.590;19.022;2023-03-23T00:05:54;7.50;74.90
27004;DHT22;14546;47.590;19.022;2023-03-23T00:08:25;7.50;75.00
27004;DHT22;14546;47.590;19.022;2023-03-23T00:10:52;7.50;75.00
27004;DHT22;14546;47.590;19.022;2023-03-23T00:13:25;7.50;75.10
27004;DHT22;14546;47.590;19.022;2023-03-23T00:15:51;7.50;75.20
27004;DHT22;14546;47.590;19.022;2023-03-23T00:18:20;7.50;75.30
27004;DHT22;14546;47.590;19.022;2023-03-23T00:20:54;7.50;75.40
27004;DHT22;14546;47.590;19.022;2023-03-23T00:23:24;7.50;75.50
27004;DHT22;14546;47.590;19.022;2023-03-23T00:25:55;7.50;75.60
27004;DHT22;14546;47.590;19.022;2023-03-23T00:28:25;7.50;75.70
27004;DHT22;14546;47.590;19.022;2023-03-23T00:30:57;7.50;75.90
27004;DHT22;14546;47.590;19.022;2023-03-23T00:33:28;7.60;76.00
27004;DHT22;14546;47.590;19.022;2023-03-23T00:35:55;7.60;76.80
27004;DHT22;14546;47.590;19.022;2023-03-23T00:38:24;7.60;76.00
27004;DHT22;14546;47.590;19.022;2023-03-23T00:40:50;7.70;76.10
27004;DHT22;14546;47.590;19.022;2023-03-23T00:43:18;7.70;76.20
27004;DHT22;14546;47.590;19.022;2023-03-23T00:45:44;7.70;76.30
27004;DHT22;14546;47.590;19.022;2023-03-23T00:48:19;7.70;76.20
27004;DHT22;14546;47.590;19.022;2023-03-23T00:50:44;7.70;76.30
27004;DHT22;14546;47.590;19.022;2023-03-23T00:53:10;7.80;76.20
27004;DHT22;14546;47.590;19.022;2023-03-23T00:55:36;7.80;76.20
27004;DHT22;14546;47.590;19.022;2023-03-23T00:58:01;7.80;76.10
27004;DHT22;14546;47.590;19.022;2023-03-23T01:00:27;7.80;76.10
27004;DHT22;14546;47.590;19.022;2023-03-23T01:02:54;7.90;76.10
27004;DHT22;14546;47.590;19.022;2023-03-23T01:05:20;7.90;76.00
27004;DHT22;14546;47.590;19.022;2023-03-23T01:07:46;7.90;76.00
27004;DHT22;14546;47.590;19.022;2023-03-23T01:10:14;7.80;75.90
27004;DHT22;14546;47.590;19.022;2023-03-23T01:12:44;7.80;75.90
27004;DHT22;14546;47.590;19.022;2023-03-23T01:15:14;7.80;75.90
27004;DHT22;14546;47.590;19.022;2023-03-23T01:17:41;7.80;75.90
27004;DHT22;14546;47.590;19.022;2023-03-23T01:20:07;7.80;75.90
27004;DHT22;14546;47.590;19.022;2023-03-23T01:22:33;7.80;76.00
27004;DHT22;14546;47.590;19.022;2023-03-23T01:24:58;7.70;76.10
27004;DHT22;14546;47.590;19.022;2023-03-23T01:27:24;7.70;76.00
27004;DHT22;14546;47.590;19.022;2023-03-23T01:29:50;7.60;76.00
27004;DHT22;14546;47.590;19.022;2023-03-23T01:32:15;7.60;76.10
27004;DHT22;14546;47.590;19.022;2023-03-23T01:34:41;7.60;76.20
27004;DHT22;14546;47.590;19.022;2023-03-23T01:37:07;7.50;76.10
27004;DHT22;14546;47.590;19.022;2023-03-23T01:39:33;7.40;76.20
27004;DHT22;14546;47.590;19.022;2023-03-23T01:42:00;7.40;76.30
27004;DHT22;14546;47.590;19.022;2023-03-23T01:46:51;7.40;76.30
27004;DHT22;14546;47.590;19.022;2023-03-23T01:49:23;7.40;76.40
27004;DHT22;14546;47.590;19.022;2023-03-23T01:51:52;7.30;76.40
27004;DHT22;14546;47.590;19.022;2023-03-23T01:54:20;7.30;76.50
27004;DHT22;14546;47.590;19.022;2023-03-23T01:56:50;7.30;76.50
27004;DHT22;14546;47.590;19.022;2023-03-23T01:59:17;7.30;76.60
27004;DHT22;14546;47.590;19.022;2023-03-23T02:01:44;7.20;76.50
27004;DHT22;14546;47.590;19.022;2023-03-23T02:04:16;7.20;76.50
27004;DHT22;14546;47.590;19.022;2023-03-23T02:06:43;7.20;76.50
27004;DHT22;14546;47.590;19.022;2023-03-23T02:09:11;7.20;76.50
27004;DHT22;14546;47.590;19.022;2023-03-23T02:11:39;7.20;76.50
27004;DHT22;14546;47.590;19.022;2023-03-23T02:14:05;7.10;76.40
27004;DHT22;14546;47.590;19.022;2023-03-23T02:22:28;7.00;76.80
27004;DHT22;14546;47.590;19.022;2023-03-23T02:31:21;6.90;76.80
27004;DHT22;14546;47.590;19.022;2023-03-23T02:33:42;6.90;76.80
27004;DHT22;14546;47.590;19.022;2023-03-23T02:36:28;6.90;76.80
27004;DHT22;14546;47.590;19.022;2023-03-23T02:38:56;6.80;76.90
27004;DHT22;14546;47.590;19.022;2023-03-23T02:41:30;6.80;77.10
27004;DHT22;14546;47.590;19.022;2023-03-23T02:43:57;6.80;77.30
27004;DHT22;14546;47.590;19.022;2023-03-23T02:46:26;6.80;77.40
27004;DHT22;14546;47.590;19.022;2023-03-23T02:48:54;6.80;77.40
27004;DHT22;14546;47.590;19.022;2023-03-23T02:51:22;6.70;77.40
27004;DHT22;14546;47.590;19.022;2023-03-23T02:53:51;6.70;77.50
27004;DHT22;14546;47.590;19.022;2023-03-23T02:56:19;6.70;77.70
27004;DHT22;14546;47.590;19.022;2023-03-23T02:58:46;6.70;77.80
27004;DHT22;14546;47.590;19.022;2023-03-23T03:04:00;6.70;78.10
27004;DHT22;14546;47.590;19.022;2023-03-23T03:06:34;6.70;78.00
27004;DHT22;14546;47.590;19.022;2023-03-23T03:09:07;6.60;77.90
27004;DHT22;14546;47.590;19.022;2023-03-23T03:11:35;6.60;78.00
27004;DHT22;14546;47.590;19.022;2023-03-23T03:14:05;6.60;78.00
27004;DHT22;14546;47.590;19.022;2023-03-23T03:16:45;6.60;77.60
27004;DHT22;14546;47.590;19.022;2023-03-23T03:19:33;6.50;77.70
27004;DHT22;14546;47.590;19.022;2023-03-23T03:22:01;6.50;78.20
27004;DHT22;14546;47.590;19.022;2023-03-23T03:24:29;6.50;78.20
27004;DHT22;14546;47.590;19.022;2023-03-23T03:26:57;6.50;78.20
27004;DHT22;14546;47.590;19.022;2023-03-23T03:29:35;6.50;78.30
27004;DHT22;14546;47.590;19.022;2023-03-23T03:32:06;6.50;78.30
27004;DHT22;14546;47.590;19.022;2023-03-23T03:34:33;6.40;78.10
27004;DHT22;14546;47.590;19.022;2023-03-23T03:37:00;6.40;78.40
27004;DHT22;14546;47.590;19.022;2023-03-23T03:39:27;6.40;79.20
27004;DHT22;14546;47.590;19.022;2023-03-23T03:41:53;6.40;78.50
27004;DHT22;14546;47.590;19.022;2023-03-23T03:44:19;6.40;78.60
27004;DHT22;14546;47.590;19.022;2023-03-23T03:46:45;6.30;78.60
27004;DHT22;14546;47.590;19.022;2023-03-23T03:49:11;6.40;78.70
27004;DHT22;14546;47.590;19.022;2023-03-23T03:51:39;6.30;78.60
27004;DHT22;14546;47.590;19.022;2023-03-23T03:54:05;6.30;78.80
27004;DHT22;14546;47.590;19.022;2023-03-23T03:56:31;6.40;78.90
27004;DHT22;14546;47.590;19.022;2023-03-23T03:59:07;6.30;78.70
27004;DHT22;14546;47.590;19.022;2023-03-23T04:01:34;6.30;78.70
27004;DHT22;14546;47.590;19.022;2023-03-23T04:04:00;6.30;79.00
27004;DHT22;14546;47.590;19.022;2023-03-23T04:06:25;6.30;79.00
27004;DHT22;14546;47.590;19.022;2023-03-23T04:08:54;6.30;79.00
27004;DHT22;14546;47.590;19.022;2023-03-23T04:11:20;6.30;79.10
27004;DHT22;14546;47.590;19.022;2023-03-23T04:13:46;6.20;79.00
27004;DHT22;14546;47.590;19.022;2023-03-23T04:16:12;6.20;79.00
27004;DHT22;14546;47.590;19.022;2023-03-23T04:18:37;6.20;79.00
27004;DHT22;14546;47.590;19.022;2023-03-23T04:21:04;6.10;79.10
27004;DHT22;14546;47.590;19.022;2023-03-23T04:23:31;6.10;79.20
27004;DHT22;14546;47.590;19.022;2023-03-23T04:25:59;6.10;79.40
27004;DHT22;14546;47.590;19.022;2023-03-23T04:28:25;6.10;79.40
27004;DHT22;14546;47.590;19.022;2023-03-23T04:30:52;6.10;79.50
27004;DHT22;14546;47.590;19.022;2023-03-23T04:33:28;6.10;79.60
27004;DHT22;14546;47.590;19.022;2023-03-23T04:35:59;6.10;79.70
27004;DHT22;14546;47.590;19.022;2023-03-23T04:38:26;6.00;79.60
27004;DHT22;14546;47.590;19.022;2023-03-23T04:40:53;6.00;79.70
27004;DHT22;14546;47.590;19.022;2023-03-23T04:43:21;6.00;79.80
27004;DHT22;14546;47.590;19.022;2023-03-23T04:45:55;6.00;79.90
27004;DHT22;14546;47.590;19.022;2023-03-23T04:48:27;6.10;80.00
27004;DHT22;14546;47.590;19.022;2023-03-23T04:50:53;6.10;80.00
27004;DHT22;14546;47.590;19.022;2023-03-23T04:53:19;6.10;80.00
27004;DHT22;14546;47.590;19.022;2023-03-23T04:55:47;6.10;80.00
27004;DHT22;14546;47.590;19.022;2023-03-23T04:58:14;6.00;80.00
27004;DHT22;14546;47.590;19.022;2023-03-23T05:00:40;6.00;80.10
27004;DHT22;14546;47.590;19.022;2023-03-23T05:03:10;6.00;80.20
27004;DHT22;14546;47.590;19.022;2023-03-23T05:05:37;6.00;80.20
27004;DHT22;14546;47.590;19.022;2023-03-23T05:08:03;6.00;80.30
27004;DHT22;14546;47.590;19.022;2023-03-23T05:10:29;6.00;80.40
27004;DHT22;14546;47.590;19.022;2023-03-23T05:12:54;6.00;80.50
27004;DHT22;14546;47.590;19.022;2023-03-23T05:15:20;6.00;80.60
27004;DHT22;14546;47.590;19.022;2023-03-23T05:17:46;6.10;80.70
27004;DHT22;14546;47.590;19.022;2023-03-23T05:20:15;6.10;80.70
27004;DHT22;14546;47.590;19.022;2023-03-23T05:22:45;6.20;80.80
27004;DHT22;14546;47.590;19.022;2023-03-23T05:25:13;6.20;80.90
27004;DHT22;14546;47.590;19.022;2023-03-23T05:27:39;6.20;81.00
27004;DHT22;14546;47.590;19.022;2023-03-23T05:30:09;6.30;81.00
27004;DHT22;14546;47.590;19.022;2023-03-23T05:32:34;6.30;81.20
27004;DHT22;14546;47.590;19.022;2023-03-23T05:35:02;6.40;81.20
27004;DHT22;14546;47.590;19.022;2023-03-23T05:37:29;6.40;81.20
27004;DHT22;14546;47.590;19.022;2023-03-23T05:39:58;6.40;81.20
27004;DHT22;14546;47.590;19.022;2023-03-23T05:42:27;6.50;81.30
27004;DHT22;14546;47.590;19.022;2023-03-23T05:44:52;6.60;81.30
27004;DHT22;14546;47.590;19.022;2023-03-23T05:47:19;6.70;81.40
27004;DHT22;14546;47.590;19.022;2023-03-23T05:49:45;6.70;81.40
27004;DHT22;14546;47.590;19.022;2023-03-23T05:52:12;6.80;81.60
27004;DHT22;14546;47.590;19.022;2023-03-23T05:54:40;6.90;82.30
27004;DHT22;14546;47.590;19.022;2023-03-23T05:57:08;7.00;81.70
27004;DHT22;14546;47.590;19.022;2023-03-23T05:59:37;7.20;82.20
27004;DHT22;14546;47.590;19.022;2023-03-23T06:02:04;7.20;82.00
27004;DHT22;14546;47.590;19.022;2023-03-23T06:04:31;7.40;81.90
27004;DHT22;14546;47.590;19.022;2023-03-23T06:07:04;7.50;81.90
27004;DHT22;14546;47.590;19.022;2023-03-23T06:09:31;7.60;81.80
27004;DHT22;14546;47.590;19.022;2023-03-23T06:11:58;7.70;81.80
27004;DHT22;14546;47.590;19.022;2023-03-23T06:14:25;7.80;81.70
27004;DHT22;14546;47.590;19.022;2023-03-23T06:16:54;7.90;81.50
27004;DHT22;14546;47.590;19.022;2023-03-23T06:19:20;8.00;81.20
27004;DHT22;14546;47.590;19.022;2023-03-23T06:21:46;8.20;81.10
27004;DHT22;14546;47.590;19.022;2023-03-23T06:24:11;8.20;80.90
27004;DHT22;14546;47.590;19.022;2023-03-23T06:26:39;8.40;80.70
27004;DHT22;14546;47.590;19.022;2023-03-23T06:29:07;8.40;80.40
27004;DHT22;14546;47.590;19.022;2023-03-23T06:31:48;8.60;80.20
27004;DHT22;14546;47.590;19.022;2023-03-23T06:34:14;8.70;79.90
27004;DHT22;14546;47.590;19.022;2023-03-23T06:36:40;8.80;79.50
27004;DHT22;14546;47.590;19.022;2023-03-23T06:39:06;8.90;79.30
27004;DHT22;14546;47.590;19.022;2023-03-23T06:41:32;9.10;78.90
27004;DHT22;14546;47.590;19.022;2023-03-23T06:43:59;9.10;78.50
27004;DHT22;14546;47.590;19.022;2023-03-23T06:46:25;9.30;78.30
27004;DHT22;14546;47.590;19.022;2023-03-23T06:48:51;9.40;78.10
27004;DHT22;14546;47.590;19.022;2023-03-23T06:51:17;9.50;78.00
27004;DHT22;14546;47.590;19.022;2023-03-23T06:53:43;9.60;77.70
27004;DHT22;14546;47.590;19.022;2023-03-23T06:56:09;9.60;77.50
27004;DHT22;14546;47.590;19.022;2023-03-23T06:58:35;9.70;77.30
27004;DHT22;14546;47.590;19.022;2023-03-23T07:01:01;9.80;77.20
27004;DHT22;14546;47.590;19.022;2023-03-23T07:03:27;9.90;76.90
27004;DHT22;14546;47.590;19.022;2023-03-23T07:05:54;10.00;76.50
27004;DHT22;14546;47.590;19.022;2023-03-23T07:08:20;10.20;76.00
27004;DHT22;14546;47.590;19.022;2023-03-23T07:10:47;10.30;75.60
27004;DHT22;14546;47.590;19.022;2023-03-23T07:13:12;10.40;75.30
27004;DHT22;14546;47.590;19.022;2023-03-23T07:15:41;10.40;74.90
27004;DHT22;14546;47.590;19.022;2023-03-23T07:18:06;10.50;74.50
27004;DHT22;14546;47.590;19.022;2023-03-23T07:20:32;10.60;74.10
27004;DHT22;14546;47.590;19.022;2023-03-23T07:22:58;10.70;73.60
27004;DHT22;14546;47.590;19.022;2023-03-23T07:25:23;10.80;73.40
27004;DHT22;14546;47.590;19.022;2023-03-23T07:27:49;10.90;73.10
27004;DHT22;14546;47.590;19.022;2023-03-23T07:30:15;11.00;72.70
27004;DHT22;14546;47.590;19.022;2023-03-23T07:32:41;11.10;72.50
27004;DHT22;14546;47.590;19.022;2023-03-23T07:35:08;11.20;72.30
27004;DHT22;14546;47.590;19.022;2023-03-23T07:37:35;11.30;72.00
27004;DHT22;14546;47.590;19.022;2023-03-23T07:40:03;11.40;71.70
27004;DHT22;14546;47.590;19.022;2023-03-23T07:42:41;11.60;71.40
27004;DHT22;14546;47.590;19.022;2023-03-23T07:45:08;11.70;71.10
27004;DHT22;14546;47.590;19.022;2023-03-23T07:47:34;11.80;71.00
27004;DHT22;14546;47.590;19.022;2023-03-23T07:50:00;11.90;70.40
27004;DHT22;14546;47.590;19.022;2023-03-23T07:52:26;12.00;70.00
27004;DHT22;14546;47.590;19.022;2023-03-23T08:04:36;12.10;69.40
27004;DHT22;14546;47.590;19.022;2023-03-23T08:07:03;12.70;68.80
27004;DHT22;14546;47.590;19.022;2023-03-23T08:09:33;12.80;67.70
27004;DHT22;14546;47.590;19.022;2023-03-23T08:11:59;13.00;68.30
27004;DHT22;14546;47.590;19.022;2023-03-23T08:14:26;13.10;68.30
27004;DHT22;14546;47.590;19.022;2023-03-23T08:16:54;13.20;67.70
27004;DHT22;14546;47.590;19.022;2023-03-23T08:19:22;13.30;67.50
27004;DHT22;14546;47.590;19.022;2023-03-23T08:21:48;13.50;67.20
27004;DHT22;14546;47.590;19.022;2023-03-23T16:33:18;13.60;66.80
27004;DHT22;14546;47.590;19.022;2023-03-23T16:35:44;20.90;42.00
27004;DHT22;14546;47.590;19.022;2023-03-23T16:38:12;20.30;44.70
27004;DHT22;14546;47.590;19.022;2023-03-23T16:40:39;20.10;44.40
27004;DHT22;14546;47.590;19.022;2023-03-23T16:43:05;20.00;43.90
27004;DHT22;14546;47.590;19.022;2023-03-23T16:45:31;19.70;49.70
27004;DHT22;14546;47.590;19.022;2023-03-23T16:47:57;19.40;42.40
27004;DHT22;14546;47.590;19.022;2023-03-23T16:50:28;19.30;43.50
27004;DHT22;14546;47.590;19.022;2023-03-23T16:52:54;19.10;44.00
27004;DHT22;14546;47.590;19.022;2023-03-23T16:55:20;19.00;44.40
27004;DHT22;14546;47.590;19.022;2023-03-23T16:57:47;18.80;44.60
27004;DHT22;14546;47.590;19.022;2023-03-23T17:00:15;18.60;44.90
27004;DHT22;14546;47.590;19.022;2023-03-23T17:02:46;18.40;45.10
27004;DHT22;14546;47.590;19.022;2023-03-23T17:05:13;18.20;45.30
27004;DHT22;14546;47.590;19.022;2023-03-23T17:07:42;18.00;45.70
27004;DHT22;14546;47.590;19.022;2023-03-23T17:10:09;17.80;46.30
27004;DHT22;14546;47.590;19.022;2023-03-23T17:12:35;17.60;46.50
27004;DHT22;14546;47.590;19.022;2023-03-23T17:15:02;17.50;46.80
27004;DHT22;14546;47.590;19.022;2023-03-23T17:17:28;17.30;47.70
27004;DHT22;14546;47.590;19.022;2023-03-23T17:19:53;17.10;47.30
27004;DHT22;14546;47.590;19.022;2023-03-23T17:22:19;16.90;47.70
27004;DHT22;14546;47.590;19.022;2023-03-23T17:24:45;16.80;47.90
27004;DHT22;14546;47.590;19.022;2023-03-23T17:27:14;16.60;48.30
27004;DHT22;14546;47.590;19.022;2023-03-23T17:29:40;16.50;48.70
27004;DHT22;14546;47.590;19.022;2023-03-23T17:32:05;16.40;48.70
27004;DHT22;14546;47.590;19.022;2023-03-23T17:34:31;16.30;48.90
27004;DHT22;14546;47.590;19.022;2023-03-23T17:36:57;16.30;50.70
27004;DHT22;14546;47.590;19.022;2023-03-23T17:39:23;16.60;51.70
27004;DHT22;14546;47.590;19.022;2023-03-23T17:41:48;16.70;50.40
27004;DHT22;14546;47.590;19.022;2023-03-23T17:44:14;16.70;49.90
27004;DHT22;14546;47.590;19.022;2023-03-23T17:46:40;16.40;49.80
27004;DHT22;14546;47.590;19.022;2023-03-23T17:49:08;16.20;49.90
27004;DHT22;14546;47.590;19.022;2023-03-23T17:51:34;16.00;50.10
27004;DHT22;14546;47.590;19.022;2023-03-23T17:54:00;15.80;50.60
27004;DHT22;14546;47.590;19.022;2023-03-23T17:56:25;15.70;50.90
27004;DHT22;14546;47.590;19.022;2023-03-23T17:58:51;15.60;51.10
27004;DHT22;14546;47.590;19.022;2023-03-23T18:01:17;15.50;51.40
27004;DHT22;14546;47.590;19.022;2023-03-23T18:03:43;15.40;51.50
27004;DHT22;14546;47.590;19.022;2023-03-23T18:06:10;15.30;51.80
27004;DHT22;14546;47.590;19.022;2023-03-23T18:08:36;15.20;52.10
27004;DHT22;14546;47.590;19.022;2023-03-23T18:11:03;15.10;52.40
27004;DHT22;14546;47.590;19.022;2023-03-23T18:13:32;15.00;52.60
27004;DHT22;14546;47.590;19.022;2023-03-23T18:15:58;14.90;52.80
27004;DHT22;14546;47.590;19.022;2023-03-23T18:18:25;14.80;53.00
27004;DHT22;14546;47.590;19.022;2023-03-23T18:20:59;14.80;53.40
27004;DHT22;14546;47.590;19.022;2023-03-23T18:23:25;14.80;53.40
27004;DHT22;14546;47.590;19.022;2023-03-23T18:25:52;14.70;53.50
27004;DHT22;14546;47.590;19.022;2023-03-23T18:28:19;14.70;53.80
27004;DHT22;14546;47.590;19.022;2023-03-23T18:30:45;14.60;53.90
27004;DHT22;14546;47.590;19.022;2023-03-23T18:33:19;14.60;53.90
27004;DHT22;14546;47.590;19.022;2023-03-23T18:35:46;14.50;54.00
27004;DHT22;14546;47.590;19.022;2023-03-23T18:38:13;14.60;54.10
27004;DHT22;14546;47.590;19.022;2023-03-23T18:40:45;14.50;54.20
27004;DHT22;14546;47.590;19.022;2023-03-23T18:43:12;14.50;54.40
27004;DHT22;14546;47.590;19.022;2023-03-23T18:45:38;14.50;54.40
27004;DHT22;14546;47.590;19.022;2023-03-23T18:48:05;14.50;54.40
27004;DHT22;14546;47.590;19.022;2023-03-23T18:50:32;14.50;54.40
27004;DHT22;14546;47.590;19.022;2023-03-23T18:52:58;14.60;54.60
27004;DHT22;14546;47.590;19.022;2023-03-23T18:55:24;14.70;54.50
27004;DHT22;14546;47.590;19.022;2023-03-23T18:57:50;14.70;54.40
27004;DHT22;14546;47.590;19.022;2023-03-23T19:00:17;14.70;54.30
27004;DHT22;14546;47.590;19.022;2023-03-23T19:02:43;14.70;54.30
27004;DHT22;14546;47.590;19.022;2023-03-23T19:05:10;14.70;54.30
27004;DHT22;14546;47.590;19.022;2023-03-23T19:07:36;14.70;54.20
27004;DHT22;14546;47.590;19.022;2023-03-23T19:10:03;14.70;54.20
27004;DHT22;14546;47.590;19.022;2023-03-23T19:12:29;14.70;54.20
27004;DHT22;14546;47.590;19.022;2023-03-23T19:14:56;14.70;54.10
27004;DHT22;14546;47.590;19.022;2023-03-23T19:17:22;14.70;54.20
27004;DHT22;14546;47.590;19.022;2023-03-23T19:19:49;14.60;54.20
27004;DHT22;14546;47.590;19.022;2023-03-23T19:22:16;14.60;54.20
27004;DHT22;14546;47.590;19.022;2023-03-23T19:24:42;14.60;54.40
27004;DHT22;14546;47.590;19.022;2023-03-23T19:27:08;14.50;54.50
27004;DHT22;14546;47.590;19.022;2023-03-23T19:29:34;14.50;54.50
27004;DHT22;14546;47.590;19.022;2023-03-23T19:32:02;14.50;54.50
27004;DHT22;14546;47.590;19.022;2023-03-23T19:34:28;14.40;54.60
27004;DHT22;14546;47.590;19.022;2023-03-23T19:37:15;14.40;54.70
27004;DHT22;14546;47.590;19.022;2023-03-23T19:39:41;14.30;54.80
27004;DHT22;14546;47.590;19.022;2023-03-23T19:42:08;14.30;54.90
27004;DHT22;14546;47.590;19.022;2023-03-23T19:44:35;14.20;54.80
27004;DHT22;14546;47.590;19.022;2023-03-23T19:47:02;14.20;54.90
27004;DHT22;14546;47.590;19.022;2023-03-23T19:49:29;14.20;55.00
27004;DHT22;14546;47.590;19.022;2023-03-23T19:51:56;14.20;55.10
27004;DHT22;14546;47.590;19.022;2023-03-23T19:54:22;14.20;55.20
27004;DHT22;14546;47.590;19.022;2023-03-23T19:56:49;14.20;55.30
27004;DHT22;14546;47.590;19.022;2023-03-23T19:59:19;14.20;55.40
27004;DHT22;14546;47.590;19.022;2023-03-23T20:01:46;14.10;55.40
27004;DHT22;14546;47.590;19.022;2023-03-23T20:04:12;14.10;55.40
27004;DHT22;14546;47.590;19.022;2023-03-23T20:06:39;14.20;55.60
27004;DHT22;14546;47.590;19.022;2023-03-23T20:09:05;14.10;55.70
27004;DHT22;14546;47.590;19.022;2023-03-23T20:11:32;14.10;55.80
27004;DHT22;14546;47.590;19.022;2023-03-23T20:13:58;14.10;55.80
27004;DHT22;14546;47.590;19.022;2023-03-23T20:16:26;14.10;55.80
27004;DHT22;14546;47.590;19.022;2023-03-23T20:18:52;14.10;56.00
27004;DHT22;14546;47.590;19.022;2023-03-23T20:21:21;14.10;56.00
27004;DHT22;14546;47.590;19.022;2023-03-23T20:23:49;14.00;56.00
27004;DHT22;14546;47.590;19.022;2023-03-23T20:26:19;14.10;56.20
27004;DHT22;14546;47.590;19.022;2023-03-23T20:28:47;14.00;56.20
27004;DHT22;14546;47.590;19.022;2023-03-23T20:31:25;14.00;56.30
27004;DHT22;14546;47.590;19.022;2023-03-23T20:33:59;13.90;56.60
27004;DHT22;14546;47.590;19.022;2023-03-23T20:36:33;13.90;56.60
27004;DHT22;14546;47.590;19.022;2023-03-23T20:39:05;13.80;56.70
27004;DHT22;14546;47.590;19.022;2023-03-23T20:41:33;13.70;56.70
27004;DHT22;14546;47.590;19.022;2023-03-23T20:44:09;13.70;56.90
27004;DHT22;14546;47.590;19.022;2023-03-23T20:46:38;13.60;57.00
27004;DHT22;14546;47.590;19.022;2023-03-23T20:49:04;13.60;57.10
27004;DHT22;14546;47.590;19.022;2023-03-23T20:51:31;13.50;57.20
27004;DHT22;14546;47.590;19.022;2023-03-23T20:53:59;13.50;57.30
27004;DHT22;14546;47.590;19.022;2023-03-23T20:56:26;13.50;57.40
27004;DHT22;14546;47.590;19.022;2023-03-23T20:58:53;13.40;57.70
27004;DHT22;14546;47.590;19.022;2023-03-23T21:01:20;13.30;57.70
27004;DHT22;14546;47.590;19.022;2023-03-23T21:03:51;13.30;58.00
27004;DHT22;14546;47.590;19.022;2023-03-23T21:06:20;13.30;58.10
27004;DHT22;14546;47.590;19.022;2023-03-23T21:08:46;13.30;58.30
27004;DHT22;14546;47.590;19.022;2023-03-23T21:11:20;13.30;58.20
27004;DHT22;14546;47.590;19.022;2023-03-23T21:13:49;13.30;58.20
27004;DHT22;14546;47.590;19.022;2023-03-23T21:16:16;13.40;58.10
27004;DHT22;14546;47.590;19.022;2023-03-23T21:18:45;13.40;58.10
27004;DHT22;14546;47.590;19.022;2023-03-23T21:21:12;13.40;58.20
27004;DHT22;14546;47.590;19.022;2023-03-23T21:23:39;13.50;58.20
27004;DHT22;14546;47.590;19.022;2023-03-23T21:26:12;13.50;58.10
27004;DHT22;14546;47.590;19.022;2023-03-23T21:28:40;13.60;58.10
27004;DHT22;14546;47.590;19.022;2023-03-23T21:31:06;13.60;58.00
27004;DHT22;14546;47.590;19.022;2023-03-23T21:33:33;13.60;57.90
27004;DHT22;14546;47.590;19.022;2023-03-23T21:35:59;13.60;58.00
27004;DHT22;14546;47.590;19.022;2023-03-23T21:38:26;13.60;58.00
27004;DHT22;14546;47.590;19.022;2023-03-23T21:40:57;13.60;58.10
27004;DHT22;14546;47.590;19.022;2023-03-23T21:43:26;13.60;58.10
27004;DHT22;14546;47.590;19.022;2023-03-23T21:45:56;13.50;58.00
27004;DHT22;14546;47.590;19.022;2023-03-23T21:48:25;13.50;58.10
27004;DHT22;14546;47.590;19.022;2023-03-23T21:50:51;13.40;58.30
27004;DHT22;14546;47.590;19.022;2023-03-23T21:53:18;13.30;58.40
27004;DHT22;14546;47.590;19.022;2023-03-23T21:55:48;13.30;58.50
27004;DHT22;14546;47.590;19.022;2023-03-23T21:58:22;13.20;58.50
27004;DHT22;14546;47.590;19.022;2023-03-23T22:00:49;13.20;58.70
27004;DHT22;14546;47.590;19.022;2023-03-23T22:03:18;13.20;58.70
27004;DHT22;14546;47.590;19.022;2023-03-23T22:05:51;13.10;58.70
27004;DHT22;14546;47.590;19.022;2023-03-23T22:08:34;13.10;58.90
27004;DHT22;14546;47.590;19.022;2023-03-23T22:11:03;13.00;58.80
27004;DHT22;14546;47.590;19.022;2023-03-23T22:13:31;12.90;58.90
27004;DHT22;14546;47.590;19.022;2023-03-23T22:15:58;12.90;59.00
27004;DHT22;14546;47.590;19.022;2023-03-23T22:18:25;12.90;59.10
27004;DHT22;14546;47.590;19.022;2023-03-23T22:20:51;12.80;59.70
27004;DHT22;14546;47.590;19.022;2023-03-23T22:23:16;12.80;59.20
27004;DHT22;14546;47.590;19.022;2023-03-23T22:25:42;12.80;59.40
27004;DHT22;14546;47.590;19.022;2023-03-23T22:28:08;12.80;59.50
27004;DHT22;14546;47.590;19.022;2023-03-23T22:30:34;12.70;59.60
27004;DHT22;14546;47.590;19.022;2023-03-23T22:33:00;12.70;59.70
27004;DHT22;14546;47.590;19.022;2023-03-23T22:35:27;12.70;60.50
27004;DHT22;14546;47.590;19.022;2023-03-23T22:37:53;12.60;59.90
27004;DHT22;14546;47.590;19.022;2023-03-23T22:40:21;12.70;60.20
27004;DHT22;14546;47.590;19.022;2023-03-23T22:42:49;12.60;60.30
27004;DHT22;14546;47.590;19.022;2023-03-23T22:45:15;12.60;60.30
27004;DHT22;14546;47.590;19.022;2023-03-23T22:47:41;12.60;60.40
27004;DHT22;14546;47.590;19.022;2023-03-23T22:50:10;12.50;60.50
27004;DHT22;14546;47.590;19.022;2023-03-23T22:52:36;12.50;60.60
27004;DHT22;14546;47.590;19.022;2023-03-23T22:55:03;12.50;60.80
27004;DHT22;14546;47.590;19.022;2023-03-23T22:57:30;12.40;60.80
27004;DHT22;14546;47.590;19.022;2023-03-23T22:59:56;12.40;61.00
27004;DHT22;14546;47.590;19.022;2023-03-23T23:02:22;12.40;61.10
27004;DHT22;14546;47.590;19.022;2023-03-23T23:04:48;12.40;61.20
27004;DHT22;14546;47.590;19.022;2023-03-23T23:07:14;12.40;61.30
27004;DHT22;14546;47.590;19.022;2023-03-23T23:09:43;12.40;61.40
27004;DHT22;14546;47.590;19.022;2023-03-23T23:12:11;12.30;61.40
27004;DHT22;14546;47.590;19.022;2023-03-23T23:14:40;12.30;61.50
27004;DHT22;14546;47.590;19.022;2023-03-23T23:17:08;12.20;61.60
27004;DHT22;14546;47.590;19.022;2023-03-23T23:19:34;12.10;61.70
27004;DHT22;14546;47.590;19.022;2023-03-23T23:22:03;12.10;61.80
27004;DHT22;14546;47.590;19.022;2023-03-23T23:24:30;12.00;61.80
27004;DHT22;14546;47.590;19.022;2023-03-23T23:26:56;12.00;61.90
27004;DHT22;14546;47.590;19.022;2023-03-23T23:31:52;11.90;62.30
27004;DHT22;14546;47.590;19.022;2023-03-23T23:34:18;11.80;62.30
27004;DHT22;14546;47.590;19.022;2023-03-23T23:36:43;11.70;62.50
27004;DHT22;14546;47.590;19.022;2023-03-23T23:39:11;11.60;62.70
27004;DHT22;14546;47.590;19.022;2023-03-23T23:41:38;11.60;63.00
27004;DHT22;14546;47.590;19.022;2023-03-23T23:44:04;11.50;63.10
27004;DHT22;14546;47.590;19.022;2023-03-23T23:46:31;11.50;63.20
27004;DHT22;14546;47.590;19.022;2023-03-23T23:49:00;11.40;63.30
27004;DHT22;14546;47.590;19.022;2023-03-23T23:51:27;11.30;63.50
27004;DHT22;14546;47.590;19.022;2023-03-23T23:53:54;11.20;63.70
27004;DHT22;14546;47.590;19.022;2023-03-23T23:56:23;11.20;63.80
27004;DHT22;14546;47.590;19.022;2023-03-23T23:58:50;11.10;63.90
